David Evans — WDC6547 — position and weather

sailwx.info

Track history (hours):
 
Tides and Currents Weather Stations Pressure Air Temp Water Temp Dewpoint Dewpoint Depression Visibility Wind Speed Wind Dir Waves Ship Positions

David Evans

Owner: American Commercial Lines LLC, Jeffersonville, IN. More information available from US FCC via Universal Licensing System and Coast Guard Vessel Documentation Center.

Last reported at 2018-May-19 14:33 UTC. Time now 2018-Jun-24 18:56 UTC.
Position N 32°45' W 091°09'.
Warning: this ship's position is 36 days out of date.

Length 52 m; draft 2.7 m.

Type: Towing. MMSI: 367057750.

Date/timePositionNaut miles runAvg speedWind from/ knotsBaromVisibWave heightAir tempDewpointWater temp
2018-May-19 14:33N 32°45' W 091°09'2 0.5
2018-May-19 11:08N 32°44' W 091°08'1 3.9
2018-May-19 10:53N 32°44' W 091°07'2 4.4
2018-May-19 10:31N 32°44' W 091°05'3 2.9
2018-May-19 09:39N 32°42' W 091°04'1 3.6
2018-May-19 09:26N 32°41' W 091°04'2 4.1
2018-May-19 08:55N 32°40' W 091°07'2 3.6
2018-May-19 08:28N 32°40' W 091°08'2 4.6
2018-May-19 08:00N 32°37' W 091°09'2 4.4
2018-May-19 07:30N 32°35' W 091°08'2 4.0
2018-May-19 07:00N 32°34' W 091°06'2 3.8
2018-May-19 06:30N 32°32' W 091°06'2 3.9
2018-May-19 06:00N 32°30' W 091°07'2 4.2
2018-May-19 05:30N 32°28' W 091°06'2 4.0
2018-May-19 05:00N 32°27' W 091°05'2 4.2
2018-May-19 04:31N 32°26' W 091°02'2 4.2
2018-May-19 04:00N 32°25' W 091°00'2 3.6
2018-May-19 03:31N 32°24' W 090°60'2 3.3
2018-May-19 03:00N 32°22' W 091°00'1 3.0
2018-May-19 02:30N 32°21' W 090°59'2 3.8
2018-May-19 02:00N 32°21' W 090°57'2 3.1
2018-May-19 01:30N 32°21' W 090°55'2 3.5
2018-May-19 01:01N 32°19' W 090°54'1 2.9
2018-May-19 00:30N 32°18' W 090°56'0 0.1
2018-May-19 00:01N 32°18' W 090°56'0 0.0
2018-May-18 23:31N 32°18' W 090°56'0 0.0
2018-May-18 23:00N 32°18' W 090°56'0 0.0
2018-May-18 22:31N 32°18' W 090°56'0 0.0
2018-May-18 22:00N 32°18' W 090°56'0 0.0
2018-May-18 21:31N 32°18' W 090°56'0 0.0
2018-May-18 21:01N 32°18' W 090°56'0 0.0
2018-May-18 20:31N 32°18' W 090°56'0 0.0
2018-May-18 20:01N 32°18' W 090°56'0 0.0
2018-May-18 19:30N 32°18' W 090°56'0 0.0
2018-May-18 19:01N 32°18' W 090°56'0 0.0
2018-May-18 18:30N 32°18' W 090°56'0 0.0
2018-May-18 18:01N 32°18' W 090°56'0 0.0
2018-May-18 17:30N 32°18' W 090°56'0 0.0
2018-May-18 17:01N 32°18' W 090°56'0 0.0
2018-May-18 16:30N 32°18' W 090°56'0 0.0
2018-May-18 16:00N 32°18' W 090°56'0 0.0
2018-May-18 15:31N 32°18' W 090°56'0 0.1
2018-May-18 15:00N 32°18' W 090°56'2 3.8
2018-May-18 14:30N 32°17' W 090°57'2 4.8
2018-May-18 14:00N 32°15' W 090°59'3 5.3
2018-May-18 13:30N 32°12' W 090°59'2 4.7
2018-May-18 13:00N 32°10' W 090°60'2 5.0
2018-May-18 12:31N 32°07' W 091°01'2 3.7
2018-May-18 12:00N 32°07' W 091°03'3 5.0
2018-May-18 11:30N 32°08' W 091°06'2 3.8
2018-May-18 11:00N 32°06' W 091°06'3 5.6
2018-May-18 10:30N 32°04' W 091°04'2 4.8
2018-May-18 10:00N 32°02' W 091°04'6 4.6
2018-May-18 08:39N 31°58' W 091°11'1 4.4
2018-May-18 08:31N 31°58' W 091°11'  
2018-May-14 09:16N 31°07' W 091°38'55 6.2
2018-May-14 00:28N 31°58' W 091°11'3 7.0
2018-May-13 23:59N 31°59' W 091°08'4 7.5
2018-May-13 23:31N 32°01' W 091°04'4 7.0
2018-May-13 23:00N 32°05' W 091°04'4 7.2
2018-May-13 22:30N 32°08' W 091°06'4 8.1
2018-May-13 22:01N 32°07' W 091°01'4 7.7
2018-May-13 21:31N 32°11' W 090°60'4 7.9
2018-May-13 21:01N 32°15' W 090°59'4 7.9
2018-May-13 20:31N 32°18' W 090°56'3 6.0
2018-May-13 20:01N 32°21' W 090°55'4 8.1
2018-May-13 19:31N 32°21' W 091°00'4 7.3
2018-May-13 19:01N 32°25' W 090°60'4 7.9
2018-May-13 18:31N 32°27' W 091°04'4 7.4
2018-May-13 18:00N 32°29' W 091°07'4 7.7
2018-May-13 17:29N 32°33' W 091°06'4 7.7
2018-May-13 17:00N 32°36' W 091°09'4 6.7
2018-May-13 16:25N 32°40' W 091°08'5 1.0
2018-May-13 11:26N 32°45' W 091°09'0 0.0
2018-May-13 10:56N 32°45' W 091°09'0 0.4
2018-May-13 10:07N 32°45' W 091°09'  
Track history (hours):
 
Tides and Currents Weather Stations Pressure Air Temp Water Temp Dewpoint Dewpoint Depression Visibility Wind Speed Wind Dir Waves Ship Positions

David Evans

Owner: American Commercial Lines LLC, Jeffersonville, IN. More information available from US FCC via Universal Licensing System and Coast Guard Vessel Documentation Center.

Last reported at 2018-May-19 14:33 UTC. Time now 2018-Jun-24 18:56 UTC.
Position N 32°45' W 091°09'.
Warning: this ship's position is 36 days out of date.

Length 52 m; draft 2.7 m.

Type: Towing. MMSI: 367057750.

Date/timePositionNaut miles runAvg speedWind from/ knotsBaromVisibWave heightAir tempDewpointWater temp
2018-May-19 14:33N 32°45' W 091°09'2 0.5
2018-May-19 11:08N 32°44' W 091°08'1 3.9
2018-May-19 10:53N 32°44' W 091°07'2 4.4
2018-May-19 10:31N 32°44' W 091°05'3 2.9
2018-May-19 09:39N 32°42' W 091°04'1 3.6
2018-May-19 09:26N 32°41' W 091°04'2 4.1
2018-May-19 08:55N 32°40' W 091°07'2 3.6
2018-May-19 08:28N 32°40' W 091°08'2 4.6
2018-May-19 08:00N 32°37' W 091°09'2 4.4
2018-May-19 07:30N 32°35' W 091°08'2 4.0
2018-May-19 07:00N 32°34' W 091°06'2 3.8
2018-May-19 06:30N 32°32' W 091°06'2 3.9
2018-May-19 06:00N 32°30' W 091°07'2 4.2
2018-May-19 05:30N 32°28' W 091°06'2 4.0
2018-May-19 05:00N 32°27' W 091°05'2 4.2
2018-May-19 04:31N 32°26' W 091°02'2 4.2
2018-May-19 04:00N 32°25' W 091°00'2 3.6
2018-May-19 03:31N 32°24' W 090°60'2 3.3
2018-May-19 03:00N 32°22' W 091°00'1 3.0
2018-May-19 02:30N 32°21' W 090°59'2 3.8
2018-May-19 02:00N 32°21' W 090°57'2 3.1
2018-May-19 01:30N 32°21' W 090°55'2 3.5
2018-May-19 01:01N 32°19' W 090°54'1 2.9
2018-May-19 00:30N 32°18' W 090°56'0 0.1
2018-May-19 00:01N 32°18' W 090°56'0 0.0
2018-May-18 23:31N 32°18' W 090°56'0 0.0
2018-May-18 23:00N 32°18' W 090°56'0 0.0
2018-May-18 22:31N 32°18' W 090°56'0 0.0
2018-May-18 22:00N 32°18' W 090°56'0 0.0
2018-May-18 21:31N 32°18' W 090°56'0 0.0
2018-May-18 21:01N 32°18' W 090°56'0 0.0
2018-May-18 20:31N 32°18' W 090°56'0 0.0
2018-May-18 20:01N 32°18' W 090°56'0 0.0
2018-May-18 19:30N 32°18' W 090°56'0 0.0
2018-May-18 19:01N 32°18' W 090°56'0 0.0
2018-May-18 18:30N 32°18' W 090°56'0 0.0
2018-May-18 18:01N 32°18' W 090°56'0 0.0
2018-May-18 17:30N 32°18' W 090°56'0 0.0
2018-May-18 17:01N 32°18' W 090°56'0 0.0
2018-May-18 16:30N 32°18' W 090°56'0 0.0
2018-May-18 16:00N 32°18' W 090°56'0 0.0
2018-May-18 15:31N 32°18' W 090°56'0 0.1
2018-May-18 15:00N 32°18' W 090°56'2 3.8
2018-May-18 14:30N 32°17' W 090°57'2 4.8
2018-May-18 14:00N 32°15' W 090°59'3 5.3
2018-May-18 13:30N 32°12' W 090°59'2 4.7
2018-May-18 13:00N 32°10' W 090°60'2 5.0
2018-May-18 12:31N 32°07' W 091°01'2 3.7
2018-May-18 12:00N 32°07' W 091°03'3 5.0
2018-May-18 11:30N 32°08' W 091°06'2 3.8
2018-May-18 11:00N 32°06' W 091°06'3 5.6
2018-May-18 10:30N 32°04' W 091°04'2 4.8
2018-May-18 10:00N 32°02' W 091°04'6 4.6
2018-May-18 08:39N 31°58' W 091°11'1 4.4
2018-May-18 08:31N 31°58' W 091°11'  
2018-May-14 09:16N 31°07' W 091°38'55 6.2
2018-May-14 00:28N 31°58' W 091°11'3 7.0
2018-May-13 23:59N 31°59' W 091°08'4 7.5
2018-May-13 23:31N 32°01' W 091°04'4 7.0
2018-May-13 23:00N 32°05' W 091°04'4 7.2
2018-May-13 22:30N 32°08' W 091°06'4 8.1
2018-May-13 22:01N 32°07' W 091°01'4 7.7
2018-May-13 21:31N 32°11' W 090°60'4 7.9
2018-May-13 21:01N 32°15' W 090°59'4 7.9
2018-May-13 20:31N 32°18' W 090°56'3 6.0
2018-May-13 20:01N 32°21' W 090°55'4 8.1
2018-May-13 19:31N 32°21' W 091°00'4 7.3
2018-May-13 19:01N 32°25' W 090°60'4 7.9
2018-May-13 18:31N 32°27' W 091°04'4 7.4
2018-May-13 18:00N 32°29' W 091°07'4 7.7
2018-May-13 17:29N 32°33' W 091°06'4 7.7
2018-May-13 17:00N 32°36' W 091°09'4 6.7
2018-May-13 16:25N 32°40' W 091°08'5 1.0
2018-May-13 11:26N 32°45' W 091°09'0 0.0
2018-May-13 10:56N 32°45' W 091°09'0 0.4
2018-May-13 10:07N 32°45' W 091°09'  

Dump ship's entire track history